Time;durP1;ratioP1;P1;durP2;ratioP2;P2;SDS_P1;SDS_P2;PMS_P1;PMS_P2;Temp;Humidity;BMP_temperature;BMP_pressure;BME280_temperature;BME280_humidity;BME280_pressure;Samples;Min_cycle;Max_cycle;Signal;HPM_P1;HPM_P2
2024/03/29 01:43:54;;;;;;;3.37;0.70;;;6.30;99.90;;;;;;4180841;28;20523;-78
2024/03/29 01:45:56;;;;;;;4.93;1.00;;;6.30;99.90;;;;;;4179431;28;20737;-76
2024/03/29 01:47:59;;;;;;;1.97;0.60;;;6.30;99.90;;;;;;4182371;28;20451;-76
2024/03/29 01:50:00;;;;;;;1.60;0.50;;;6.30;99.90;;;;;;4180929;28;20648;-77
2024/03/29 01:52:03;;;;;;;1.93;0.63;;;6.30;99.90;;;;;;4179798;28;20499;-76
2024/03/29 01:54:09;;;;;;;3.07;0.77;;;6.20;99.90;;;;;;4179332;28;20470;-77
2024/03/29 01:56:12;;;;;;;1.10;0.80;;;6.30;99.90;;;;;;4180917;28;20452;-76
2024/03/29 01:58:14;;;;;;;1.73;0.67;;;6.30;99.90;;;;;;4182129;28;20264;-76
2024/03/29 02:00:17;;;;;;;1.70;0.50;;;6.20;99.90;;;;;;4179380;28;20305;-76
2024/03/29 02:02:18;;;;;;;1.13;0.57;;;6.30;99.90;;;;;;4180511;28;20277;-76
2024/03/29 02:04:27;;;;;;;5.00;0.63;;;6.20;99.90;;;;;;4179991;28;21041;-77
2024/03/29 02:06:28;;;;;;;3.17;0.60;;;6.20;99.90;;;;;;4178286;28;20787;-75
2024/03/29 02:08:30;;;;;;;3.70;0.90;;;6.20;99.90;;;;;;4180752;28;20943;-76
2024/03/29 02:10:32;;;;;;;2.47;0.63;;;6.20;99.90;;;;;;4179558;28;20226;-76
2024/03/29 02:12:34;;;;;;;4.43;0.73;;;6.10;99.90;;;;;;4178205;28;20453;-77
2024/03/29 02:14:35;;;;;;;2.13;0.60;;;6.10;99.90;;;;;;4179480;28;20449;-77
2024/03/29 02:16:38;;;;;;;1.63;0.73;;;6.10;99.90;;;;;;4180329;28;20449;-77
2024/03/29 02:18:39;;;;;;;2.50;0.60;;;6.20;99.90;;;;;;4179327;28;20983;-77
2024/03/29 02:20:41;;;;;;;2.33;0.43;;;6.20;99.90;;;;;;4183313;28;20465;-77
2024/03/29 02:22:48;;;;;;;1.67;0.63;;;6.20;99.90;;;;;;4178845;28;20653;-76
2024/03/29 02:24:51;;;;;;;1.53;0.60;;;6.20;99.90;;;;;;4179990;28;20294;-76
2024/03/29 02:26:53;;;;;;;3.33;0.50;;;6.20;99.90;;;;;;4179962;28;20223;-77
2024/03/29 02:28:54;;;;;;;1.90;0.70;;;6.20;99.90;;;;;;4181220;28;20222;-77
2024/03/29 02:30:56;;;;;;;1.77;0.60;;;6.20;99.90;;;;;;4180421;28;20713;-77
2024/03/29 02:32:58;;;;;;;2.03;0.60;;;6.20;99.90;;;;;;4179405;28;20241;-77
2024/03/29 02:35:00;;;;;;;3.03;0.77;;;6.30;99.90;;;;;;4179261;28;20296;-77
2024/03/29 02:37:03;;;;;;;2.07;0.60;;;6.20;99.90;;;;;;4180709;28;20285;-77
2024/03/29 02:39:05;;;;;;;1.77;0.70;;;6.20;99.90;;;;;;4179826;28;21180;-77
2024/03/29 02:41:08;;;;;;;3.43;0.73;;;6.20;99.90;;;;;;4181608;28;20735;-77
2024/03/29 02:43:10;;;;;;;2.33;0.70;;;6.20;99.90;;;;;;4178308;28;20206;-76
2024/03/29 02:45:12;;;;;;;2.73;0.60;;;6.20;99.90;;;;;;4180443;28;20441;-76
2024/03/29 02:47:14;;;;;;;2.87;0.60;;;6.20;99.90;;;;;;4179475;28;20229;-76
2024/03/29 02:49:14;;;;;;;2.43;0.60;;;6.30;99.90;;;;;;4180277;28;20575;-76
2024/03/29 02:51:16;;;;;;;2.57;0.70;;;6.30;99.90;;;;;;4178778;28;20252;-76
2024/03/29 02:53:17;;;;;;;1.10;0.60;;;6.20;99.90;;;;;;4181660;28;20231;-76
2024/03/29 02:55:18;;;;;;;2.00;0.70;;;6.30;99.90;;;;;;4181476;28;20205;-77
2024/03/29 02:57:21;;;;;;;0.80;0.70;;;6.30;99.90;;;;;;4180090;28;20195;-77
2024/03/29 02:59:22;;;;;;;1.00;0.57;;;6.30;99.90;;;;;;4177316;28;20222;-77
2024/03/29 03:01:24;;;;;;;4.87;0.83;;;6.30;99.90;;;;;;4179607;28;20529;-77
2024/03/29 03:03:27;;;;;;;3.77;0.77;;;6.30;99.90;;;;;;4179084;28;20310;-76
2024/03/29 03:05:30;;;;;;;1.73;0.77;;;6.30;99.90;;;;;;4177492;28;20463;-77
2024/03/29 03:12:10;;;;;;;2.57;0.80;;;6.40;99.90;;;;;;4180287;28;20206;-76
2024/03/29 03:14:14;;;;;;;2.13;0.70;;;6.40;99.90;;;;;;4179486;28;20531;-76
2024/03/29 03:16:15;;;;;;;2.70;0.77;;;6.40;99.90;;;;;;4180462;28;20682;-76
2024/03/29 03:18:16;;;;;;;0.70;0.50;;;6.40;99.90;;;;;;4179918;28;20441;-76
2024/03/29 03:20:17;;;;;;;4.73;0.60;;;6.40;99.90;;;;;;4176600;28;20238;-76
2024/03/29 03:22:19;;;;;;;1.40;0.70;;;6.50;99.90;;;;;;4176181;28;20273;-76
2024/03/29 03:24:20;;;;;;;3.00;0.87;;;6.50;99.90;;;;;;4180349;28;20201;-76
2024/03/29 03:26:22;;;;;;;4.47;0.87;;;6.50;99.90;;;;;;4179467;28;20480;-76
2024/03/29 03:28:23;;;;;;;1.90;0.50;;;6.50;99.90;;;;;;4168340;28;20241;-76
2024/03/29 03:30:26;;;;;;;1.63;0.60;;;6.50;99.90;;;;;;4178369;28;20461;-76
2024/03/29 03:32:27;;;;;;;4.23;0.70;;;6.50;99.90;;;;;;4176720;28;20286;-76
2024/03/29 03:34:30;;;;;;;3.33;0.70;;;6.50;99.90;;;;;;4179015;28;20223;-76
2024/03/29 03:36:31;;;;;;;3.67;0.80;;;6.50;99.90;;;;;;4178230;28;20654;-77
2024/03/29 03:38:32;;;;;;;0.87;0.60;;;6.50;99.90;;;;;;4179986;28;20234;-76
2024/03/29 03:40:34;;;;;;;2.90;0.57;;;6.40;99.90;;;;;;4178939;28;20597;-77
2024/03/29 03:42:35;;;;;;;1.73;0.80;;;6.50;99.90;;;;;;4179790;28;20206;-77
2024/03/29 03:44:37;;;;;;;1.50;0.70;;;6.50;99.90;;;;;;4179061;28;20194;-76
2024/03/29 03:46:39;;;;;;;4.90;0.87;;;6.50;99.90;;;;;;4177290;28;20215;-77
2024/03/29 03:48:41;;;;;;;1.90;0.70;;;6.50;99.90;;;;;;4177491;28;20631;-75
2024/03/29 03:50:42;;;;;;;1.37;0.67;;;6.50;99.90;;;;;;4175527;28;20227;-75
2024/03/29 03:52:43;;;;;;;5.00;1.07;;;6.50;99.90;;;;;;4177924;28;20449;-74
2024/03/29 03:54:45;;;;;;;1.47;0.70;;;6.50;99.90;;;;;;4177900;28;20202;-74
2024/03/29 03:56:46;;;;;;;1.97;0.70;;;6.40;99.90;;;;;;4177721;28;20289;-74
2024/03/29 03:58:48;;;;;;;1.37;0.63;;;6.40;99.90;;;;;;4180103;28;20210;-74
2024/03/29 04:00:49;;;;;;;3.20;0.70;;;6.40;99.90;;;;;;4171474;28;20645;-74
2024/03/29 04:02:53;;;;;;;6.20;1.17;;;6.40;99.90;;;;;;4178767;28;20194;-74
2024/03/29 04:04:54;;;;;;;2.23;0.67;;;6.40;99.90;;;;;;4179689;28;20536;-74
2024/03/29 04:06:56;;;;;;;3.93;0.93;;;6.40;99.90;;;;;;4176980;28;20265;-74
2024/03/29 04:08:57;;;;;;;2.20;0.67;;;6.40;99.90;;;;;;4179226;28;20210;-74
2024/03/29 04:11:02;;;;;;;4.73;0.80;;;6.40;99.90;;;;;;4172543;28;20317;-74
2024/03/29 04:13:04;;;;;;;4.53;0.80;;;6.40;99.90;;;;;;4176933;28;20206;-74
2024/03/29 04:15:07;;;;;;;2.13;0.73;;;6.40;99.90;;;;;;4177046;28;20453;-74
2024/03/29 04:17:07;;;;;;;3.73;0.90;;;6.50;99.90;;;;;;4179104;28;20209;-74
2024/03/29 04:19:11;;;;;;;2.67;0.80;;;6.50;99.90;;;;;;4179333;28;20203;-74
2024/03/29 04:21:12;;;;;;;1.50;0.60;;;6.40;99.90;;;;;;4175722;28;20293;-76
2024/03/29 04:23:13;;;;;;;2.50;0.70;;;6.40;99.90;;;;;;4177255;28;20194;-74
2024/03/29 04:25:14;;;;;;;3.10;0.63;;;6.40;99.90;;;;;;4173639;28;20219;-74
2024/03/29 04:27:16;;;;;;;1.20;0.70;;;6.40;99.90;;;;;;4180424;28;20977;-75
2024/03/29 04:29:17;;;;;;;0.77;0.50;;;6.50;99.90;;;;;;4181510;28;20261;-74
2024/03/29 04:31:19;;;;;;;2.87;1.00;;;6.50;99.90;;;;;;4178725;28;20198;-74
2024/03/29 04:33:20;;;;;;;6.13;1.23;;;6.50;99.90;;;;;;4177789;28;20199;-74
2024/03/29 04:35:23;;;;;;;3.67;0.87;;;6.50;99.90;;;;;;4181615;28;20528;-75
2024/03/29 04:37:25;;;;;;;3.27;0.80;;;6.50;99.90;;;;;;4175931;28;20187;-74
2024/03/29 04:39:28;;;;;;;4.33;0.50;;;6.60;99.90;;;;;;4178326;28;20229;-74
2024/03/29 04:41:34;;;;;;;1.63;0.60;;;6.60;99.90;;;;;;4177580;28;21051;-74
2024/03/29 04:43:36;;;;;;;3.33;1.07;;;6.60;99.90;;;;;;4176511;28;20798;-74
2024/03/29 04:45:37;;;;;;;1.53;0.80;;;6.60;99.90;;;;;;4170919;28;20206;-74
2024/03/29 04:47:38;;;;;;;2.20;0.90;;;6.60;99.90;;;;;;4179519;28;20488;-74
2024/03/29 04:49:40;;;;;;;1.63;0.60;;;6.60;99.90;;;;;;4172363;28;20702;-75
2024/03/29 04:51:44;;;;;;;4.13;1.00;;;6.60;99.90;;;;;;4179002;28;20210;-75
2024/03/29 04:53:45;;;;;;;2.47;0.50;;;6.70;99.90;;;;;;4171679;28;20210;-74
2024/03/29 04:55:53;;;;;;;1.63;0.80;;;6.70;99.90;;;;;;4178265;28;20222;-73
2024/03/29 04:57:55;;;;;;;2.20;1.13;;;6.70;99.90;;;;;;4182851;28;20213;-74
2024/03/29 04:59:56;;;;;;;2.67;0.70;;;6.70;99.90;;;;;;4182532;28;20250;-74
2024/03/29 05:02:00;;;;;;;3.67;0.87;;;6.70;99.90;;;;;;4181909;28;20203;-74
2024/03/29 05:04:02;;;;;;;1.77;0.70;;;6.80;99.90;;;;;;4179452;28;20642;-74
2024/03/29 05:06:04;;;;;;;2.50;0.73;;;6.80;99.90;;;;;;4180840;28;20209;-74
2024/03/29 05:08:08;;;;;;;5.90;0.87;;;6.80;99.90;;;;;;4177951;28;20699;-74
2024/03/29 05:10:09;;;;;;;1.83;0.70;;;6.80;99.90;;;;;;4179670;28;20222;-74
2024/03/29 05:12:11;;;;;;;2.77;0.80;;;6.80;99.90;;;;;;4184119;28;20257;-74
2024/03/29 05:14:13;;;;;;;3.73;0.70;;;6.80;99.90;;;;;;4173372;28;20278;-76
2024/03/29 05:16:16;;;;;;;3.33;0.70;;;6.90;99.90;;;;;;4176046;28;20461;-74
2024/03/29 05:18:17;;;;;;;2.47;0.67;;;6.90;99.90;;;;;;4180901;28;20701;-74
2024/03/29 05:20:19;;;;;;;3.10;0.90;;;6.90;99.90;;;;;;4181829;28;20226;-75
2024/03/29 05:22:20;;;;;;;1.43;0.67;;;6.90;99.90;;;;;;4180692;28;20215;-76
2024/03/29 05:24:23;;;;;;;2.93;0.90;;;7.00;99.90;;;;;;4178087;28;20207;-74
2024/03/29 05:26:24;;;;;;;1.50;0.60;;;7.00;99.90;;;;;;4178016;28;20234;-76
2024/03/29 05:28:26;;;;;;;2.70;0.70;;;7.10;99.90;;;;;;4177724;28;20808;-75
2024/03/29 05:30:28;;;;;;;4.57;0.80;;;7.10;99.90;;;;;;4181550;28;20250;-74
2024/03/29 05:32:30;;;;;;;4.40;0.60;;;7.10;99.90;;;;;;4181829;28;20203;-75
2024/03/29 05:34:32;;;;;;;4.53;0.73;;;7.20;99.90;;;;;;4181721;28;20297;-74
2024/03/29 05:36:33;;;;;;;3.57;1.10;;;7.10;99.90;;;;;;4179887;28;20204;-74
2024/03/29 05:38:35;;;;;;;3.07;1.00;;;7.20;99.90;;;;;;4179570;28;20225;-74
2024/03/29 05:40:38;;;;;;;4.17;0.80;;;7.20;99.90;;;;;;4179063;28;20277;-74
2024/03/29 05:42:39;;;;;;;2.30;0.77;;;7.30;99.90;;;;;;4182159;28;20192;-74
2024/03/29 05:44:41;;;;;;;3.10;1.40;;;7.30;99.90;;;;;;4181841;28;20230;-74
2024/03/29 05:46:43;;;;;;;3.13;1.17;;;7.40;99.90;;;;;;4180696;28;20253;-74
2024/03/29 05:48:45;;;;;;;1.73;0.70;;;7.40;99.90;;;;;;4176186;28;20203;-73
2024/03/29 05:50:46;;;;;;;4.20;1.27;;;7.40;99.90;;;;;;4182222;28;20314;-73
2024/03/29 05:52:48;;;;;;;4.03;1.17;;;7.40;99.90;;;;;;4179740;28;20206;-75
2024/03/29 05:54:50;;;;;;;2.73;0.80;;;7.50;99.90;;;;;;4179592;28;20214;-75
2024/03/29 05:56:54;;;;;;;1.90;0.90;;;7.60;99.90;;;;;;4177653;28;20680;-74
2024/03/29 05:58:56;;;;;;;2.10;0.80;;;7.60;99.90;;;;;;4177824;28;20220;-75
2024/03/29 06:00:58;;;;;;;4.10;1.30;;;7.70;99.90;;;;;;4179168;28;20227;-76
2024/03/29 06:03:02;;;;;;;3.40;1.10;;;7.70;99.90;;;;;;4178908;28;20218;-74
2024/03/29 06:05:04;;;;;;;1.37;0.77;;;7.70;99.90;;;;;;4180598;28;20203;-76
2024/03/29 06:07:08;;;;;;;4.33;1.00;;;7.70;99.90;;;;;;4171653;28;20311;-74
2024/03/29 06:09:09;;;;;;;2.87;0.60;;;7.80;99.90;;;;;;4181090;28;20290;-74
2024/03/29 06:11:10;;;;;;;2.00;0.90;;;7.80;99.90;;;;;;4173154;28;20207;-75
2024/03/29 06:13:27;;;;;;;1.63;0.70;;;7.90;99.90;;;;;;4182815;28;20203;-76
2024/03/29 06:17:48;;;;;;;2.30;0.90;;;8.00;99.90;;;;;;4181068;28;20196;-75
2024/03/29 06:19:50;;;;;;;2.47;1.03;;;8.00;99.90;;;;;;4176984;28;20750;-76
2024/03/29 06:21:52;;;;;;;2.43;0.90;;;8.00;99.90;;;;;;4181216;28;20196;-74
2024/03/29 06:23:53;;;;;;;1.83;0.90;;;8.10;99.90;;;;;;4172940;28;20224;-74
2024/03/29 06:25:55;;;;;;;3.60;0.90;;;8.10;99.90;;;;;;4180792;28;20201;-75
2024/03/29 06:27:55;;;;;;;1.50;0.70;;;8.10;99.90;;;;;;4180837;28;20260;-77
2024/03/29 06:29:59;;;;;;;1.87;0.80;;;8.20;99.90;;;;;;4178663;28;20224;-74
2024/03/29 06:32:00;;;;;;;1.63;0.93;;;8.20;99.90;;;;;;4181038;28;20828;-75
2024/03/29 06:34:02;;;;;;;1.43;0.90;;;8.20;99.90;;;;;;4180482;28;20200;-75
2024/03/29 06:36:04;;;;;;;2.70;0.90;;;8.20;99.90;;;;;;4179810;28;20691;-75
2024/03/29 06:38:06;;;;;;;1.50;0.87;;;8.30;99.90;;;;;;4180342;28;20287;-74
2024/03/29 06:40:08;;;;;;;2.47;0.90;;;8.40;99.90;;;;;;4180580;28;20693;-74
2024/03/29 06:42:10;;;;;;;1.27;0.70;;;8.40;99.90;;;;;;4179954;28;20207;-74
2024/03/29 06:44:12;;;;;;;1.47;0.70;;;8.40;99.90;;;;;;4179432;28;20246;-74
2024/03/29 06:46:16;;;;;;;1.77;0.70;;;8.50;99.90;;;;;;4180761;28;20220;-74
2024/03/29 06:48:17;;;;;;;3.23;0.60;;;8.60;99.90;;;;;;4180294;28;20315;-74
2024/03/29 06:50:18;;;;;;;3.37;0.90;;;8.60;99.90;;;;;;4178777;28;20222;-74
2024/03/29 06:52:20;;;;;;;2.00;0.70;;;8.70;99.90;;;;;;4180035;28;20588;-74
2024/03/29 06:54:26;;;;;;;2.17;0.63;;;8.70;99.90;;;;;;4178634;28;20681;-74
2024/03/29 06:56:27;;;;;;;1.60;0.70;;;8.80;99.90;;;;;;4177221;28;20224;-74
2024/03/29 06:58:29;;;;;;;2.50;0.70;;;8.90;99.90;;;;;;4171917;28;20211;-74
2024/03/29 07:00:31;;;;;;;1.17;0.60;;;8.90;99.90;;;;;;4180574;28;20229;-74
2024/03/29 07:02:34;;;;;;;2.03;0.80;;;8.90;99.90;;;;;;4173500;28;20229;-74
2024/03/29 07:04:35;;;;;;;1.27;0.60;;;8.90;99.90;;;;;;4179629;28;20214;-76
2024/03/29 07:06:38;;;;;;;1.77;0.70;;;9.00;99.90;;;;;;4178226;28;20198;-74
2024/03/29 07:08:40;;;;;;;0.50;0.40;;;9.00;99.90;;;;;;4176956;28;20297;-76
2024/03/29 07:10:42;;;;;;;1.60;0.80;;;9.10;99.90;;;;;;4172279;28;20253;-74
2024/03/29 07:12:44;;;;;;;2.07;0.70;;;9.10;99.90;;;;;;4177978;28;20308;-75
2024/03/29 07:14:45;;;;;;;0.40;0.40;;;9.20;99.90;;;;;;4179608;28;20234;-75
2024/03/29 07:16:47;;;;;;;0.67;0.50;;;9.20;99.90;;;;;;4180519;28;20214;-74
2024/03/29 07:18:51;;;;;;;1.73;1.00;;;9.30;99.90;;;;;;4180642;28;20296;-74
2024/03/29 07:20:53;;;;;;;1.83;0.77;;;9.30;99.90;;;;;;4178505;28;20237;-74
2024/03/29 07:22:55;;;;;;;0.77;0.67;;;9.30;99.90;;;;;;4174946;28;20242;-74
2024/03/29 07:24:56;;;;;;;0.90;0.70;;;9.30;99.90;;;;;;4171191;28;20660;-74
2024/03/29 07:26:58;;;;;;;1.67;0.80;;;9.40;99.90;;;;;;4179194;28;20660;-74
2024/03/29 07:28:59;;;;;;;1.70;0.70;;;9.40;99.90;;;;;;4180912;28;20230;-74
2024/03/29 07:31:07;;;;;;;3.40;0.70;;;9.50;99.90;;;;;;4177714;28;20214;-75
2024/03/29 07:33:09;;;;;;;0.97;0.57;;;9.50;99.90;;;;;;4180214;28;20217;-74
2024/03/29 07:35:15;;;;;;;2.43;0.63;;;9.50;99.90;;;;;;4180399;28;20677;-75
2024/03/29 07:37:16;;;;;;;1.87;0.60;;;9.50;99.90;;;;;;4178002;28;20304;-75
2024/03/29 07:39:18;;;;;;;0.93;0.60;;;9.60;99.90;;;;;;4179822;28;20198;-75
2024/03/29 07:41:19;;;;;;;1.33;0.70;;;9.60;99.90;;;;;;4171470;28;20202;-77
2024/03/29 07:43:23;;;;;;;2.07;0.57;;;9.60;99.90;;;;;;4175313;28;20195;-77
2024/03/29 07:45:25;;;;;;;2.30;0.63;;;9.70;99.90;;;;;;4175754;28;20267;-75
2024/03/29 07:47:27;;;;;;;2.03;0.57;;;9.70;99.90;;;;;;4174936;28;20264;-75
2024/03/29 07:49:29;;;;;;;3.60;0.70;;;9.70;99.90;;;;;;4177259;28;20316;-75
2024/03/29 07:51:33;;;;;;;1.10;0.67;;;9.80;99.90;;;;;;4177430;28;21040;-75
2024/03/29 07:53:34;;;;;;;1.97;0.60;;;9.80;99.90;;;;;;4178392;28;20250;-75
2024/03/29 07:55:38;;;;;;;1.37;0.53;;;9.80;99.90;;;;;;4172204;28;20799;-74
2024/03/29 07:57:42;;;;;;;2.87;0.60;;;9.80;99.90;;;;;;4176590;28;20252;-75
2024/03/29 07:59:44;;;;;;;1.47;0.70;;;9.80;99.90;;;;;;4175380;28;21079;-75
2024/03/29 08:01:46;;;;;;;2.67;0.80;;;9.80;99.90;;;;;;4180353;28;20649;-75
2024/03/29 08:03:48;;;;;;;3.27;0.70;;;9.80;99.90;;;;;;4180105;28;20222;-75
2024/03/29 08:05:58;;;;;;;0.80;0.60;;;9.80;99.90;;;;;;4178563;28;20197;-76
2024/03/29 08:08:02;;;;;;;1.93;0.80;;;9.80;99.90;;;;;;4174225;28;20784;-75
2024/03/29 08:10:07;;;;;;;4.27;0.80;;;9.80;99.90;;;;;;4175766;28;20236;-78
2024/03/29 08:12:10;;;;;;;1.90;0.83;;;9.80;99.90;;;;;;4178766;28;20279;-75
2024/03/29 08:14:12;;;;;;;3.90;1.00;;;9.70;99.90;;;;;;4177403;28;20237;-75
2024/03/29 08:16:16;;;;;;;2.00;0.70;;;9.70;99.90;;;;;;4179470;28;20220;-75
2024/03/29 08:18:17;;;;;;;1.37;0.60;;;9.60;99.90;;;;;;4178917;28;20194;-74
2024/03/29 08:20:19;;;;;;;2.33;0.60;;;9.50;99.90;;;;;;4178432;28;20233;-75
2024/03/29 08:22:21;;;;;;;0.93;0.70;;;9.50;99.90;;;;;;4175959;28;20202;-75
2024/03/29 08:24:25;;;;;;;1.93;0.90;;;9.40;99.90;;;;;;4171588;28;20246;-75
2024/03/29 08:26:28;;;;;;;4.63;1.23;;;9.30;99.90;;;;;;4172474;28;20214;-74
2024/03/29 08:28:30;;;;;;;3.93;1.17;;;9.40;99.90;;;;;;4177580;28;20234;-74
2024/03/29 08:30:34;;;;;;;2.83;0.80;;;9.30;99.90;;;;;;4178516;28;20236;-74
2024/03/29 08:32:36;;;;;;;3.43;1.30;;;9.20;99.90;;;;;;4175472;28;20300;-76
2024/03/29 08:34:38;;;;;;;2.20;1.10;;;9.20;99.90;;;;;;4178593;28;20205;-76
2024/03/29 08:36:40;;;;;;;2.17;1.13;;;9.20;99.90;;;;;;4179482;28;20575;-76
2024/03/29 08:38:43;;;;;;;2.23;1.13;;;9.20;99.90;;;;;;4179049;28;20600;-76
2024/03/29 08:40:48;;;;;;;1.73;1.03;;;9.10;99.90;;;;;;4176389;28;20224;-76
2024/03/29 08:42:49;;;;;;;2.50;1.00;;;9.20;99.90;;;;;;4179584;28;20225;-76
2024/03/29 08:44:52;;;;;;;2.33;1.30;;;9.20;99.90;;;;;;4178394;28;20229;-76
2024/03/29 08:46:56;;;;;;;3.03;1.10;;;9.20;99.90;;;;;;4178753;28;20213;-75
2024/03/29 08:48:58;;;;;;;3.30;1.03;;;9.20;99.90;;;;;;4177809;28;20222;-75
2024/03/29 08:51:00;;;;;;;2.53;1.00;;;9.20;99.90;;;;;;4178897;28;20299;-76
2024/03/29 08:53:03;;;;;;;1.67;1.00;;;9.30;99.90;;;;;;4178336;28;20210;-75
2024/03/29 08:55:05;;;;;;;2.40;1.10;;;9.20;99.90;;;;;;4177851;28;20696;-75
2024/03/29 08:57:08;;;;;;;1.83;0.90;;;9.30;99.90;;;;;;4177537;28;20954;-75
2024/03/29 08:59:11;;;;;;;4.33;1.83;;;9.30;99.90;;;;;;4176886;28;20210;-76
2024/03/29 09:01:15;;;;;;;2.20;0.90;;;9.40;99.90;;;;;;4178683;28;20719;-75
2024/03/29 09:03:17;;;;;;;1.60;0.70;;;9.50;99.90;;;;;;4177362;28;20624;-75
2024/03/29 09:05:19;;;;;;;2.13;0.87;;;9.50;99.90;;;;;;4175140;28;20237;-75
2024/03/29 09:07:22;;;;;;;1.53;0.80;;;9.50;99.90;;;;;;4178344;28;20289;-75
2024/03/29 09:09:24;;;;;;;1.77;0.70;;;9.60;99.90;;;;;;4182574;28;20606;-76
2024/03/29 09:11:26;;;;;;;3.40;0.80;;;9.60;99.90;;;;;;4177505;28;20205;-75
2024/03/29 09:13:32;;;;;;;2.47;0.90;;;9.60;99.90;;;;;;4175306;28;20228;-75
2024/03/29 09:15:34;;;;;;;2.83;1.03;;;9.70;99.90;;;;;;4185119;28;20267;-75
2024/03/29 09:17:35;;;;;;;4.43;0.90;;;9.70;99.90;;;;;;4169717;28;20226;-76
2024/03/29 09:19:36;;;;;;;3.03;0.87;;;9.80;99.90;;;;;;4174852;28;20619;-75
2024/03/29 09:21:38;;;;;;;1.80;0.90;;;9.80;99.90;;;;;;4179280;28;20239;-74
2024/03/29 09:23:41;;;;;;;1.70;0.80;;;9.90;99.90;;;;;;4174102;28;20211;-74
2024/03/29 09:25:44;;;;;;;1.33;0.80;;;9.90;99.90;;;;;;4182787;28;20202;-74
2024/03/29 09:27:48;;;;;;;2.33;1.00;;;9.90;99.90;;;;;;4175745;28;20237;-74
2024/03/29 09:29:50;;;;;;;1.47;0.67;;;10.00;99.90;;;;;;4177938;28;20229;-74
2024/03/29 09:31:52;;;;;;;2.47;1.00;;;10.10;99.90;;;;;;4175985;28;20202;-74
2024/03/29 09:33:57;;;;;;;1.97;1.00;;;10.10;99.90;;;;;;4178673;28;20217;-74
2024/03/29 09:35:59;;;;;;;3.50;1.10;;;10.10;99.90;;;;;;4174249;28;20206;-74
2024/03/29 09:38:03;;;;;;;2.97;0.90;;;10.20;99.90;;;;;;4175302;28;20206;-74
2024/03/29 09:40:08;;;;;;;1.67;0.70;;;10.20;99.90;;;;;;4177169;28;20293;-74
2024/03/29 09:42:16;;;;;;;1.03;0.77;;;10.30;99.90;;;;;;4175968;28;20638;-74
2024/03/29 09:44:18;;;;;;;1.80;0.90;;;10.30;99.90;;;;;;4178947;28;20210;-74
2024/03/29 09:46:22;;;;;;;3.80;0.80;;;10.30;99.90;;;;;;4181810;28;20233;-74
2024/03/29 09:48:26;;;;;;;1.33;0.60;;;10.30;99.90;;;;;;4181555;28;20210;-74
2024/03/29 09:50:28;;;;;;;2.17;0.73;;;10.40;99.90;;;;;;4180278;28;20226;-74
2024/03/29 09:52:32;;;;;;;2.00;0.90;;;10.50;99.90;;;;;;4180743;28;20199;-74
2024/03/29 09:54:34;;;;;;;2.10;0.93;;;10.50;99.90;;;;;;4181375;28;20609;-74
2024/03/29 09:56:38;;;;;;;2.93;0.87;;;10.60;99.90;;;;;;4180075;28;20194;-74
2024/03/29 09:58:40;;;;;;;2.07;0.90;;;10.60;99.90;;;;;;4180522;28;20203;-75
2024/03/29 10:00:42;;;;;;;1.87;0.97;;;10.60;99.90;;;;;;4179406;28;20633;-75
2024/03/29 10:02:46;;;;;;;1.97;0.97;;;10.70;99.90;;;;;;4178227;28;20230;-75
2024/03/29 10:04:50;;;;;;;4.07;0.80;;;10.70;99.90;;;;;;4178289;28;20203;-75
2024/03/29 10:06:53;;;;;;;1.70;0.80;;;10.80;99.90;;;;;;4181099;28;20202;-75
2024/03/29 10:08:58;;;;;;;1.80;0.87;;;10.80;99.90;;;;;;4177533;28;20286;-74
2024/03/29 10:11:00;;;;;;;1.83;0.60;;;10.90;99.90;;;;;;4178527;28;20284;-75
2024/03/29 10:13:01;;;;;;;2.00;0.77;;;11.00;99.90;;;;;;4179414;28;20209;-77
2024/03/29 10:15:08;;;;;;;2.03;0.90;;;11.00;99.90;;;;;;4179259;28;20198;-74
2024/03/29 10:17:10;;;;;;;1.10;0.80;;;11.00;99.90;;;;;;4179050;28;20289;-75
2024/03/29 10:19:14;;;;;;;1.97;0.80;;;11.10;99.90;;;;;;4178071;28;20297;-75
2024/03/29 10:21:16;;;;;;;1.60;0.70;;;11.20;99.90;;;;;;4178264;28;20252;-73
2024/03/29 10:23:18;;;;;;;25.57;14.83;;;11.20;99.90;;;;;;4170342;28;20676;-76
2024/03/29 10:25:20;;;;;;;35.80;17.50;;;11.30;99.90;;;;;;4180833;28;20238;-73
2024/03/29 10:27:22;;;;;;;22.03;10.73;;;11.40;99.90;;;;;;4180787;28;20277;-74
2024/03/29 10:29:28;;;;;;;9.53;4.90;;;11.40;99.90;;;;;;4180558;28;20257;-74
2024/03/29 10:31:35;;;;;;;4.83;2.30;;;11.40;99.90;;;;;;4179021;28;20206;-73
2024/03/29 10:33:37;;;;;;;3.37;1.50;;;11.50;99.90;;;;;;4173390;28;20663;-73
2024/03/29 10:35:41;;;;;;;2.83;1.27;;;11.50;99.90;;;;;;4183122;28;20238;-73
2024/03/29 10:37:44;;;;;;;3.97;1.30;;;11.60;99.90;;;;;;4181024;28;20235;-74
2024/03/29 10:39:46;;;;;;;1.80;1.07;;;11.60;99.90;;;;;;4179296;28;20227;-74
2024/03/29 10:41:48;;;;;;;1.77;0.90;;;11.70;99.90;;;;;;4182397;28;20265;-74
2024/03/29 10:43:53;;;;;;;1.70;1.07;;;11.70;99.90;;;;;;4177090;28;20212;-74
2024/03/29 10:45:59;;;;;;;2.33;1.00;;;11.70;99.90;;;;;;4176009;28;20575;-73
2024/03/29 10:48:01;;;;;;;3.30;1.27;;;11.70;99.90;;;;;;4174641;28;20203;-74
2024/03/29 10:50:05;;;;;;;1.87;1.10;;;11.80;99.90;;;;;;4174483;28;20661;-74
2024/03/29 10:52:13;;;;;;;2.23;1.00;;;11.80;99.90;;;;;;4179995;28;20207;-74
2024/03/29 10:54:16;;;;;;;2.47;1.33;;;11.80;99.90;;;;;;4178905;28;20207;-74
2024/03/29 10:56:19;;;;;;;2.20;1.10;;;11.80;99.90;;;;;;4178754;28;20582;-74
2024/03/29 10:58:24;;;;;;;3.07;1.27;;;11.90;99.90;;;;;;4178625;28;20207;-75
2024/03/29 11:00:29;;;;;;;4.90;2.20;;;11.90;99.90;;;;;;4173904;28;20230;-75
2024/03/29 11:02:38;;;;;;;4.60;2.50;;;12.00;99.90;;;;;;4174619;28;20869;-74
2024/03/29 11:04:42;;;;;;;5.13;2.50;;;12.10;99.90;;;;;;4175265;28;20247;-75
2024/03/29 11:06:46;;;;;;;2.30;1.37;;;12.30;99.90;;;;;;4173838;28;20232;-76
2024/03/29 11:08:55;;;;;;;4.00;1.17;;;12.30;99.90;;;;;;4174223;28;20311;-75
2024/03/29 11:11:06;;;;;;;3.47;1.20;;;12.40;99.90;;;;;;4179360;28;20227;-75
2024/03/29 11:13:15;;;;;;;1.70;0.80;;;12.50;99.90;;;;;;4169631;28;20199;-76
2024/03/29 11:15:24;;;;;;;2.10;1.10;;;12.60;99.90;;;;;;4178584;28;20232;-76
2024/03/29 11:17:26;;;;;;;2.60;0.80;;;12.60;99.90;;;;;;4177893;28;20665;-76
2024/03/29 11:19:27;;;;;;;2.07;1.07;;;12.70;99.90;;;;;;4179661;28;20222;-76
2024/03/29 11:21:30;;;;;;;4.93;1.40;;;12.80;99.90;;;;;;4179728;28;20202;-76
2024/03/29 11:23:31;;;;;;;3.47;1.50;;;12.80;99.90;;;;;;4178995;28;20202;-76
2024/03/29 11:25:42;;;;;;;3.23;1.57;;;12.90;99.90;;;;;;4179280;28;20217;-76
2024/03/29 11:27:44;;;;;;;1.97;1.17;;;13.00;99.90;;;;;;4180033;28;20221;-76
2024/03/29 11:29:47;;;;;;;3.67;1.43;;;13.00;99.90;;;;;;4180876;28;20248;-76
2024/03/29 11:31:56;;;;;;;2.57;1.20;;;13.10;99.90;;;;;;4177490;28;20642;-76
2024/03/29 11:33:58;;;;;;;3.00;1.30;;;13.20;99.90;;;;;;4180088;28;20811;-76
2024/03/29 11:36:06;;;;;;;3.03;1.77;;;13.20;99.90;;;;;;4178374;28;20206;-77
2024/03/29 11:38:08;;;;;;;2.90;1.37;;;13.30;99.90;;;;;;4180010;28;20226;-76
2024/03/29 11:40:12;;;;;;;2.87;1.07;;;13.50;99.90;;;;;;4177586;28;20234;-76
2024/03/29 11:42:16;;;;;;;50.67;26.50;;;13.50;99.90;;;;;;4173758;28;20226;-77
2024/03/29 11:44:17;;;;;;;18.40;9.63;;;13.60;99.90;;;;;;4171829;28;20954;-77
2024/03/29 11:46:19;;;;;;;4.17;2.17;;;13.70;99.90;;;;;;4177450;28;20202;-76
2024/03/29 11:48:25;;;;;;;3.57;1.30;;;13.80;99.90;;;;;;4179761;28;20211;-76
2024/03/29 11:50:27;;;;;;;1.90;1.00;;;13.80;99.90;;;;;;4177982;28;20257;-77
2024/03/29 11:52:28;;;;;;;2.60;1.07;;;13.80;99.90;;;;;;4178888;28;20203;-76
2024/03/29 11:54:36;;;;;;;2.17;0.93;;;13.90;99.90;;;;;;4182268;28;20210;-77
2024/03/29 11:56:38;;;;;;;1.60;0.93;;;14.00;99.90;;;;;;4182185;28;20234;-76
2024/03/29 11:58:42;;;;;;;1.67;0.90;;;13.90;99.90;;;;;;4181731;28;20724;-76
2024/03/29 12:00:45;;;;;;;3.63;1.20;;;13.90;99.90;;;;;;4178418;28;20273;-77
2024/03/29 12:02:48;;;;;;;2.47;1.07;;;13.90;99.90;;;;;;4171743;28;20203;-77
2024/03/29 12:04:50;;;;;;;2.33;1.10;;;13.90;99.70;;;;;;4178925;28;20706;-76
2024/03/29 12:06:53;;;;;;;1.70;0.80;;;14.00;99.90;;;;;;4178418;28;20238;-76
2024/03/29 12:08:57;;;;;;;1.70;0.90;;;14.00;99.90;;;;;;4178926;28;20302;-76
2024/03/29 12:10:59;;;;;;;2.53;0.83;;;14.00;99.90;;;;;;4177772;28;20315;-76
2024/03/29 12:13:01;;;;;;;1.20;0.67;;;14.00;97.50;;;;;;4180105;28;20721;-76
2024/03/29 12:15:05;;;;;;;2.27;0.90;;;14.00;99.90;;;;;;4178042;28;20566;-76
2024/03/29 12:17:11;;;;;;;2.00;1.00;;;14.00;99.90;;;;;;4177696;28;20213;-76
2024/03/29 12:19:27;;;;;;;1.37;0.63;;;14.10;99.90;;;;;;4178958;28;20222;-76
2024/03/29 12:21:29;;;;;;;3.00;1.47;;;14.20;99.90;;;;;;4176368;28;20218;-76
2024/03/29 12:23:31;;;;;;;0.80;0.70;;;14.20;99.90;;;;;;4177997;28;20290;-76
2024/03/29 12:25:33;;;;;;;1.40;0.60;;;14.40;99.90;;;;;;4176081;28;20215;-75
2024/03/29 12:27:43;;;;;;;2.37;0.50;;;14.60;99.90;;;;;;4176515;28;20234;-76
2024/03/29 12:29:45;;;;;;;1.17;0.60;;;14.80;99.90;;;;;;4177270;28;20670;-77
2024/03/29 12:31:59;;;;;;;28.53;13.90;;;14.80;99.90;;;;;;4176727;28;20620;-76
2024/03/29 12:34:01;;;;;;;2.30;1.53;;;14.80;99.90;;;;;;4179025;28;20213;-76